createdAt,value
2023-04-30T00:00:26.077Z,3.50
2023-04-30T00:02:52.461Z,4.07
2023-04-30T00:05:19.234Z,4.00
2023-04-30T00:07:45.561Z,7.50
2023-04-30T00:10:12.186Z,4.00
2023-04-30T00:12:39.375Z,4.07
2023-04-30T00:15:06.328Z,4.30
2023-04-30T00:17:32.790Z,3.20
2023-04-30T00:19:59.647Z,3.40
2023-04-30T00:22:26.038Z,3.65
2023-04-30T00:24:52.341Z,3.97
2023-04-30T00:27:19.049Z,4.07
2023-04-30T00:29:45.436Z,3.75
2023-04-30T00:32:11.806Z,3.90
2023-04-30T00:34:38.617Z,3.63
2023-04-30T00:37:05.364Z,4.45
2023-04-30T00:39:31.684Z,3.40
2023-04-30T00:41:58.000Z,3.50
2023-04-30T00:44:24.783Z,3.60
2023-04-30T00:46:51.110Z,3.00
2023-04-30T00:49:17.669Z,3.10
2023-04-30T00:51:44.646Z,2.60
2023-04-30T00:54:11.284Z,2.72
2023-04-30T00:56:37.751Z,2.30
2023-04-30T00:59:04.526Z,2.70
2023-04-30T01:01:31.608Z,2.85
2023-04-30T01:03:58.393Z,2.65
2023-04-30T01:06:27.261Z,2.50
2023-04-30T01:08:53.886Z,2.47
2023-04-30T01:11:32.440Z,3.28
2023-04-30T01:14:09.739Z,2.85
2023-04-30T01:16:43.828Z,2.97
2023-04-30T01:19:27.447Z,3.60
2023-04-30T01:21:56.947Z,4.22
2023-04-30T01:24:33.222Z,4.40
2023-04-30T01:27:14.047Z,4.05
2023-04-30T01:29:42.566Z,4.80
2023-04-30T01:32:11.206Z,4.47
2023-04-30T01:34:37.965Z,4.97
2023-04-30T01:37:24.509Z,3.55
2023-04-30T01:40:02.921Z,3.30
2023-04-30T01:43:06.790Z,3.53
2023-04-30T01:45:59.488Z,4.40
2023-04-30T01:49:04.998Z,4.03
2023-04-30T01:51:41.281Z,3.67
2023-04-30T01:54:25.639Z,3.20
2023-04-30T01:57:04.968Z,3.20
2023-04-30T01:59:34.543Z,3.67
2023-04-30T02:02:01.327Z,3.90
2023-04-30T02:04:28.062Z,3.42
2023-04-30T02:06:54.413Z,3.45
2023-04-30T02:09:23.931Z,3.55
2023-04-30T02:11:51.207Z,3.72
2023-04-30T02:14:17.578Z,3.80
2023-04-30T02:16:43.988Z,3.58
2023-04-30T02:19:11.467Z,3.55
2023-04-30T02:21:37.814Z,3.50
2023-04-30T02:24:04.389Z,3.40
2023-04-30T02:26:31.256Z,3.45
2023-04-30T02:28:58.265Z,3.58
2023-04-30T02:31:24.688Z,3.80
2023-04-30T02:33:51.036Z,3.92
2023-04-30T02:36:17.562Z,3.55
2023-04-30T02:38:43.900Z,4.10
2023-04-30T02:41:10.245Z,6.32
2023-04-30T02:43:36.973Z,3.85
2023-04-30T02:46:03.353Z,3.53
2023-04-30T02:48:30.051Z,3.70
2023-04-30T02:50:56.429Z,3.88
2023-04-30T02:53:22.765Z,3.30
2023-04-30T02:55:49.502Z,3.80
2023-04-30T02:58:15.843Z,3.55
2023-04-30T03:00:42.154Z,3.63
2023-04-30T03:03:09.119Z,2.90
2023-04-30T03:05:35.616Z,3.20
2023-04-30T03:08:02.386Z,3.20
2023-04-30T03:10:28.771Z,3.88
2023-04-30T03:12:55.552Z,3.78
2023-04-30T03:15:22.220Z,3.85
2023-04-30T03:17:48.598Z,4.10
2023-04-30T03:20:15.444Z,3.85
2023-04-30T03:22:41.893Z,3.28
2023-04-30T03:25:08.987Z,3.35
2023-04-30T03:27:35.646Z,3.38
2023-04-30T03:30:01.995Z,3.42
2023-04-30T03:32:28.840Z,3.92
2023-04-30T03:34:55.235Z,3.50
2023-04-30T03:37:21.574Z,3.42
2023-04-30T03:39:48.266Z,4.25
2023-04-30T03:42:14.604Z,3.83
2023-04-30T03:44:41.011Z,3.75
2023-04-30T03:47:07.958Z,3.20
2023-04-30T03:49:34.287Z,3.38
2023-04-30T03:52:01.033Z,3.20
2023-04-30T03:54:27.805Z,4.03
2023-04-30T03:56:54.168Z,3.88
2023-04-30T03:59:20.780Z,3.40
2023-04-30T04:01:47.573Z,3.72
2023-04-30T04:04:14.060Z,3.80
2023-04-30T04:06:40.722Z,4.25
2023-04-30T04:09:09.357Z,4.40
2023-04-30T04:11:35.788Z,4.28
2023-04-30T04:14:02.156Z,4.47
2023-04-30T04:16:29.131Z,4.03
2023-04-30T04:18:55.543Z,3.88
2023-04-30T04:21:21.882Z,3.72
2023-04-30T04:23:48.736Z,3.78
2023-04-30T04:26:16.429Z,4.15
2023-04-30T04:28:42.869Z,3.83
2023-04-30T04:31:09.744Z,4.13
2023-04-30T04:33:37.027Z,4.38
2023-04-30T04:36:03.698Z,4.45
2023-04-30T04:38:30.984Z,4.57
2023-04-30T04:40:57.329Z,4.38
2023-04-30T04:43:23.672Z,4.40
2023-04-30T04:45:50.723Z,4.07
2023-04-30T04:48:17.132Z,3.78
2023-04-30T04:50:43.636Z,3.47
2023-04-30T04:53:10.876Z,4.07
2023-04-30T04:55:37.362Z,3.63
2023-04-30T04:58:03.769Z,3.97
2023-04-30T05:00:30.768Z,4.20
2023-04-30T05:02:57.578Z,4.10
2023-04-30T05:05:24.059Z,4.25
2023-04-30T05:07:52.797Z,4.55
2023-04-30T05:10:19.538Z,4.60
2023-04-30T05:12:46.034Z,4.90
2023-04-30T05:15:12.493Z,4.88
2023-04-30T05:17:39.218Z,5.25
2023-04-30T05:20:07.191Z,4.85
2023-04-30T05:22:33.964Z,5.53
2023-04-30T05:25:00.808Z,7.72
2023-04-30T05:27:27.561Z,7.22
2023-04-30T05:29:54.048Z,7.97
2023-04-30T05:32:22.911Z,9.98
2023-04-30T05:34:49.606Z,9.15
2023-04-30T05:37:17.608Z,10.70
2023-04-30T05:39:44.423Z,9.82
2023-04-30T05:42:10.801Z,10.18
2023-04-30T05:44:37.261Z,8.57
2023-04-30T05:47:04.057Z,7.03
2023-04-30T05:49:30.399Z,7.93
2023-04-30T05:51:56.801Z,8.27
2023-04-30T05:54:23.629Z,6.85
2023-04-30T05:56:49.976Z,6.55
2023-04-30T05:59:16.319Z,7.70
2023-04-30T06:01:43.164Z,7.55
2023-04-30T06:04:09.588Z,7.97
2023-04-30T06:06:36.586Z,7.00
2023-04-30T06:09:03.342Z,7.53
2023-04-30T06:11:30.709Z,8.18
2023-04-30T06:13:58.001Z,6.55
2023-04-30T06:16:24.627Z,7.68
2023-04-30T06:18:53.446Z,7.53
2023-04-30T06:21:21.013Z,7.13
2023-04-30T06:23:47.340Z,7.28
2023-04-30T06:26:15.224Z,6.57
2023-04-30T06:28:42.129Z,5.60
2023-04-30T06:31:08.664Z,6.68
2023-04-30T06:33:35.165Z,6.88
2023-04-30T06:36:01.913Z,6.45
2023-04-30T06:38:28.734Z,6.15
2023-04-30T06:40:55.633Z,6.20
2023-04-30T06:43:22.006Z,6.57
2023-04-30T06:45:48.336Z,6.20
2023-04-30T06:48:14.912Z,5.80
2023-04-30T06:50:44.871Z,5.78
2023-04-30T06:53:12.639Z,7.00
2023-04-30T06:55:40.077Z,6.07
2023-04-30T06:58:06.558Z,6.50
2023-04-30T07:00:32.933Z,4.80
2023-04-30T07:03:03.959Z,7.43
2023-04-30T07:05:31.163Z,6.72
2023-04-30T07:07:58.353Z,7.03
2023-04-30T07:10:25.585Z,7.03
2023-04-30T07:12:51.964Z,5.18
2023-04-30T07:15:18.427Z,5.90
2023-04-30T07:17:45.153Z,7.25
2023-04-30T07:20:14.509Z,7.07
2023-04-30T07:22:44.702Z,6.72
2023-04-30T07:25:11.966Z,6.65
2023-04-30T07:27:38.665Z,7.00
2023-04-30T07:30:06.436Z,7.15
2023-04-30T07:32:34.247Z,6.20
2023-04-30T07:35:00.625Z,5.50
2023-04-30T07:37:27.656Z,6.60
2023-04-30T07:39:54.188Z,5.78
2023-04-30T07:42:20.669Z,6.88
2023-04-30T07:44:49.314Z,6.85
2023-04-30T07:47:15.920Z,5.55
2023-04-30T07:49:42.273Z,6.55
2023-04-30T07:52:11.389Z,6.30
2023-04-30T07:54:38.797Z,5.63
2023-04-30T07:57:05.825Z,6.38
2023-04-30T07:59:33.037Z,5.30
2023-04-30T08:02:00.021Z,4.05
2023-04-30T08:04:26.715Z,5.78
2023-04-30T08:06:53.584Z,6.65
2023-04-30T08:09:20.123Z,6.50
2023-04-30T08:11:46.469Z,6.93
2023-04-30T08:14:13.201Z,6.55
2023-04-30T08:16:39.772Z,6.07
2023-04-30T08:19:06.264Z,6.93
2023-04-30T08:21:33.778Z,6.30
2023-04-30T08:24:00.297Z,4.90
2023-04-30T08:26:27.152Z,5.22
2023-04-30T08:28:53.542Z,6.35
2023-04-30T08:31:20.367Z,4.47
2023-04-30T08:33:47.076Z,6.65
2023-04-30T08:36:13.433Z,4.57
2023-04-30T08:38:39.975Z,4.47
2023-04-30T08:41:12.586Z,5.38
2023-04-30T08:43:40.212Z,3.90
2023-04-30T08:46:07.427Z,3.90
2023-04-30T08:48:35.175Z,5.10
2023-04-30T08:51:03.152Z,3.67
2023-04-30T08:53:31.428Z,4.20
2023-04-30T08:55:59.006Z,5.57
2023-04-30T08:58:25.474Z,5.10
2023-04-30T09:00:51.821Z,4.20
2023-04-30T09:03:18.771Z,3.15
2023-04-30T09:05:45.300Z,4.18
2023-04-30T09:08:17.929Z,2.47
2023-04-30T09:10:44.432Z,2.70
2023-04-30T09:13:12.064Z,4.05
2023-04-30T09:15:46.246Z,3.85
2023-04-30T09:18:18.241Z,3.95
2023-04-30T09:21:14.797Z,4.00
2023-04-30T09:23:56.075Z,3.90
2023-04-30T09:26:28.050Z,2.85
2023-04-30T09:28:57.022Z,4.30
2023-04-30T09:31:24.984Z,3.40
2023-04-30T09:33:52.288Z,3.00
2023-04-30T09:36:19.951Z,3.13
2023-04-30T09:38:46.806Z,4.63
2023-04-30T09:41:28.819Z,4.25
2023-04-30T09:43:56.938Z,4.65
2023-04-30T09:46:35.567Z,2.97
2023-04-30T09:49:04.160Z,2.50
2023-04-30T09:51:31.680Z,3.33
2023-04-30T09:53:58.068Z,3.97
2023-04-30T09:56:26.660Z,3.55
2023-04-30T09:58:55.249Z,3.55
2023-04-30T10:01:26.791Z,4.25
2023-04-30T10:03:53.892Z,3.47
2023-04-30T10:06:25.316Z,3.08
2023-04-30T10:08:56.776Z,2.78
2023-04-30T10:11:28.425Z,3.00
2023-04-30T10:14:01.834Z,3.00
2023-04-30T10:16:48.923Z,2.67
2023-04-30T10:19:30.214Z,3.10
2023-04-30T10:21:57.742Z,3.30
2023-04-30T10:24:24.186Z,3.40
2023-04-30T10:26:50.748Z,3.25
2023-04-30T10:29:18.833Z,2.03
2023-04-30T10:31:48.626Z,2.42
2023-04-30T10:34:52.915Z,2.90
2023-04-30T10:37:34.760Z,3.40
2023-04-30T10:40:02.490Z,3.50
2023-04-30T10:42:28.941Z,3.70
2023-04-30T10:44:56.649Z,2.92
2023-04-30T10:47:29.362Z,2.28
2023-04-30T10:50:08.646Z,2.33
2023-04-30T10:52:37.384Z,2.10
2023-04-30T10:55:05.799Z,2.30
2023-04-30T10:57:32.970Z,2.40
2023-04-30T11:00:08.989Z,1.67
2023-04-30T11:02:40.791Z,2.40
2023-04-30T11:05:13.421Z,2.10
2023-04-30T11:08:00.983Z,2.05
2023-04-30T11:10:31.865Z,2.88
2023-04-30T11:12:59.954Z,2.70
2023-04-30T11:15:34.008Z,2.30
2023-04-30T11:18:01.186Z,3.28
2023-04-30T11:20:28.035Z,2.10
2023-04-30T11:23:10.727Z,3.20
2023-04-30T11:25:47.414Z,2.92
2023-04-30T11:28:19.405Z,2.85
2023-04-30T11:30:56.739Z,3.00
2023-04-30T11:33:25.786Z,2.50
2023-04-30T11:35:53.484Z,3.17
2023-04-30T11:38:27.423Z,2.85
2023-04-30T11:40:56.700Z,2.65
2023-04-30T11:43:31.579Z,2.38
2023-04-30T11:46:27.720Z,2.60
2023-04-30T11:48:54.678Z,2.50
2023-04-30T11:51:26.791Z,2.67
2023-04-30T11:53:53.615Z,2.58
2023-04-30T11:56:24.657Z,2.72
2023-04-30T11:58:55.825Z,3.15
2023-04-30T12:01:26.144Z,3.30
2023-04-30T12:03:55.113Z,2.60
2023-04-30T12:06:22.834Z,3.20
2023-04-30T12:08:49.832Z,3.17
2023-04-30T12:11:25.279Z,3.28
2023-04-30T12:13:56.937Z,2.88
2023-04-30T12:16:25.449Z,2.30
2023-04-30T12:18:52.806Z,2.70
2023-04-30T12:21:22.509Z,2.22
2023-04-30T12:23:48.891Z,2.80
2023-04-30T12:26:15.247Z,2.20
2023-04-30T12:28:42.057Z,1.90
2023-04-30T12:31:08.586Z,2.90
2023-04-30T12:33:34.982Z,3.30
2023-04-30T12:36:02.554Z,2.60
2023-04-30T12:38:28.960Z,2.63
2023-04-30T12:40:56.377Z,3.13
2023-04-30T12:43:23.059Z,2.90
2023-04-30T12:45:51.886Z,2.50
2023-04-30T12:48:20.924Z,3.03
2023-04-30T12:50:49.230Z,2.97
2023-04-30T12:53:15.677Z,2.92
2023-04-30T12:55:42.232Z,3.10
2023-04-30T12:58:11.909Z,2.50
2023-04-30T13:00:49.691Z,2.30
2023-04-30T13:03:20.358Z,2.80
2023-04-30T13:05:53.890Z,2.83
2023-04-30T13:08:21.268Z,3.00
2023-04-30T13:10:48.919Z,2.67
2023-04-30T13:13:17.258Z,2.83
2023-04-30T13:15:44.205Z,2.67
2023-04-30T13:18:10.776Z,2.25
2023-04-30T13:20:38.667Z,2.17
2023-04-30T13:23:06.289Z,2.92
2023-04-30T13:25:35.230Z,2.55
2023-04-30T13:28:01.931Z,2.67
2023-04-30T13:30:28.865Z,2.78
2023-04-30T13:32:56.065Z,2.05
2023-04-30T13:35:23.001Z,2.00
2023-04-30T13:37:52.211Z,3.10
2023-04-30T13:40:20.412Z,2.63
2023-04-30T13:42:48.895Z,3.00
2023-04-30T13:45:16.218Z,2.60
2023-04-30T13:47:43.299Z,2.67
2023-04-30T13:50:10.314Z,2.60
2023-04-30T13:52:36.914Z,2.83
2023-04-30T13:55:05.244Z,2.72
2023-04-30T13:57:33.200Z,2.40
2023-04-30T13:59:59.891Z,2.20
2023-04-30T14:02:28.775Z,2.40
2023-04-30T14:05:05.241Z,2.50
2023-04-30T14:07:33.716Z,2.42
2023-04-30T14:10:00.309Z,2.40
2023-04-30T14:12:26.953Z,1.67
2023-04-30T14:14:53.953Z,2.58
2023-04-30T14:17:20.651Z,1.98
2023-04-30T14:19:47.256Z,1.92
2023-04-30T14:22:14.103Z,2.00
2023-04-30T14:24:40.765Z,2.30
2023-04-30T14:27:07.210Z,2.22
2023-04-30T14:29:34.128Z,2.42
2023-04-30T14:32:01.261Z,2.88
2023-04-30T14:34:27.782Z,2.45
2023-04-30T14:36:54.718Z,2.22
2023-04-30T14:39:21.746Z,2.63
2023-04-30T14:41:48.121Z,2.60
2023-04-30T14:44:14.532Z,2.15
2023-04-30T14:46:41.585Z,1.95
2023-04-30T14:49:07.975Z,3.78
2023-04-30T14:51:34.534Z,2.40
2023-04-30T14:54:03.038Z,2.50
2023-04-30T14:56:29.448Z,2.00
2023-04-30T14:58:55.809Z,2.05
2023-04-30T15:01:22.742Z,2.00
2023-04-30T15:03:49.377Z,2.13
2023-04-30T15:06:15.875Z,2.10
2023-04-30T15:08:43.066Z,2.10
2023-04-30T15:11:10.236Z,1.85
2023-04-30T15:13:38.105Z,1.80
2023-04-30T15:16:05.231Z,2.00
2023-04-30T15:18:33.068Z,1.40
2023-04-30T15:21:00.705Z,2.10
2023-04-30T15:23:27.107Z,2.30
2023-04-30T15:25:53.520Z,2.28
2023-04-30T15:28:20.930Z,2.10
2023-04-30T15:30:47.300Z,1.90
2023-04-30T15:33:13.675Z,2.28
2023-04-30T15:35:40.954Z,2.50
2023-04-30T15:38:07.437Z,2.33
2023-04-30T15:40:36.032Z,1.95
2023-04-30T15:43:03.220Z,1.40
2023-04-30T15:45:30.115Z,1.67
2023-04-30T15:47:56.525Z,2.50
2023-04-30T15:50:23.261Z,2.08
2023-04-30T15:52:49.639Z,2.20
2023-04-30T15:55:16.106Z,2.13
2023-04-30T15:57:42.822Z,2.10
2023-04-30T16:00:10.606Z,2.17
2023-04-30T16:02:37.459Z,2.13
2023-04-30T16:05:04.392Z,2.40
2023-04-30T16:07:31.865Z,2.30
2023-04-30T16:10:02.130Z,2.30
2023-04-30T16:12:28.999Z,2.70
2023-04-30T16:14:55.482Z,2.70
2023-04-30T16:17:21.832Z,2.40
2023-04-30T16:19:48.461Z,2.05
2023-04-30T16:22:14.884Z,2.40
2023-04-30T16:24:41.206Z,1.85
2023-04-30T16:27:08.666Z,2.40
2023-04-30T16:29:35.304Z,2.45
2023-04-30T16:32:01.850Z,2.22
2023-04-30T16:34:28.701Z,2.20
2023-04-30T16:36:55.698Z,1.88
2023-04-30T16:39:22.071Z,2.70
2023-04-30T16:41:48.449Z,2.45
2023-04-30T16:44:15.228Z,2.42
2023-04-30T16:46:41.654Z,2.10
2023-04-30T16:49:08.106Z,2.22
2023-04-30T16:51:34.769Z,2.30
2023-04-30T16:54:01.155Z,2.45
2023-04-30T16:56:27.618Z,2.08
2023-04-30T16:58:54.986Z,2.80
2023-04-30T17:01:21.400Z,2.72
2023-04-30T17:03:47.938Z,2.55
2023-04-30T17:06:14.900Z,2.72
2023-04-30T17:08:41.283Z,2.60
2023-04-30T17:11:07.776Z,3.10
2023-04-30T17:13:34.514Z,2.33
2023-04-30T17:16:02.242Z,2.53
2023-04-30T17:18:28.934Z,2.58
2023-04-30T17:20:55.442Z,2.65
2023-04-30T17:23:22.277Z,2.17
2023-04-30T17:25:48.668Z,2.30
2023-04-30T17:28:16.417Z,2.40
2023-04-30T17:30:45.109Z,2.40
2023-04-30T17:33:11.518Z,2.97
2023-04-30T17:35:38.288Z,2.70
2023-04-30T17:38:04.959Z,2.65
2023-04-30T17:40:31.678Z,2.42
2023-04-30T17:42:58.029Z,2.53
2023-04-30T17:45:27.042Z,2.85
2023-04-30T17:47:53.518Z,2.30
2023-04-30T17:50:19.958Z,2.78
2023-04-30T17:52:47.141Z,2.50
2023-04-30T17:55:13.925Z,2.47
2023-04-30T17:57:40.286Z,2.55
2023-04-30T18:00:07.757Z,2.20
2023-04-30T18:02:34.157Z,2.42
2023-04-30T18:05:01.043Z,2.33
2023-04-30T18:07:27.420Z,2.65
2023-04-30T18:09:54.377Z,2.42
2023-04-30T18:12:21.418Z,2.42
2023-04-30T18:14:47.806Z,2.20
2023-04-30T18:17:15.760Z,3.38
2023-04-30T18:19:46.331Z,2.60
2023-04-30T18:22:12.761Z,3.08
2023-04-30T18:24:39.934Z,2.88
2023-04-30T18:27:07.489Z,2.63
2023-04-30T18:29:35.286Z,2.45
2023-04-30T18:32:02.315Z,2.33
2023-04-30T18:34:28.717Z,2.67
2023-04-30T18:36:55.180Z,3.00
2023-04-30T18:39:24.703Z,2.40
2023-04-30T18:41:51.422Z,2.92
2023-04-30T18:44:19.361Z,2.75
2023-04-30T18:46:46.157Z,2.80
2023-04-30T18:49:14.053Z,2.30
2023-04-30T18:51:40.762Z,3.00
2023-04-30T18:54:07.105Z,2.50
2023-04-30T18:56:33.487Z,3.28
2023-04-30T18:58:59.854Z,8.77
2023-04-30T19:01:27.192Z,3.78
2023-04-30T19:03:54.265Z,2.58
2023-04-30T19:06:20.736Z,4.03
2023-04-30T19:08:47.269Z,3.40
2023-04-30T19:11:14.156Z,2.92
2023-04-30T19:13:40.543Z,3.47
2023-04-30T19:16:07.181Z,3.15
2023-04-30T19:18:35.352Z,5.22
2023-04-30T19:21:02.250Z,3.80
2023-04-30T19:23:32.270Z,3.95
2023-04-30T19:26:00.061Z,3.20
2023-04-30T19:28:27.196Z,3.72
2023-04-30T19:30:54.804Z,3.40
2023-04-30T19:33:24.967Z,3.15
2023-04-30T19:35:53.730Z,3.33
2023-04-30T19:38:21.874Z,4.80
2023-04-30T19:40:53.019Z,3.83
2023-04-30T19:43:20.390Z,3.45
2023-04-30T19:45:48.093Z,2.80
2023-04-30T19:48:14.843Z,3.35
2023-04-30T19:50:45.471Z,3.35
2023-04-30T19:53:12.421Z,3.13
2023-04-30T19:55:38.867Z,3.35
2023-04-30T19:58:05.454Z,3.10
2023-04-30T20:00:36.162Z,3.42
2023-04-30T20:03:04.961Z,4.07
2023-04-30T20:05:32.220Z,4.35
2023-04-30T20:08:00.065Z,3.08
2023-04-30T20:10:26.518Z,4.97
2023-04-30T20:12:53.775Z,3.63
2023-04-30T20:15:22.333Z,5.15
2023-04-30T20:17:52.811Z,3.63
2023-04-30T20:20:21.114Z,4.15
2023-04-30T20:22:50.634Z,4.38
2023-04-30T20:25:17.469Z,4.63
2023-04-30T20:27:43.832Z,3.65
2023-04-30T20:30:11.246Z,3.35
2023-04-30T20:32:38.958Z,4.28
2023-04-30T20:35:07.109Z,4.40
2023-04-30T20:37:37.257Z,5.03
2023-04-30T20:40:05.154Z,3.60
2023-04-30T20:42:31.503Z,4.75
2023-04-30T20:44:57.851Z,4.13
2023-04-30T20:47:24.521Z,4.05
2023-04-30T20:49:51.163Z,3.83
2023-04-30T20:52:18.541Z,3.53
2023-04-30T20:54:46.176Z,2.80
2023-04-30T20:57:12.721Z,3.10
2023-04-30T20:59:39.138Z,3.17
2023-04-30T21:02:06.144Z,3.63
2023-04-30T21:04:32.716Z,3.15
2023-04-30T21:06:59.036Z,3.33
2023-04-30T21:09:25.728Z,3.50
2023-04-30T21:11:52.099Z,3.20
2023-04-30T21:14:18.605Z,3.40
2023-04-30T21:16:45.656Z,3.58
2023-04-30T21:19:12.073Z,3.13
2023-04-30T21:21:38.431Z,3.05
2023-04-30T21:24:05.677Z,3.00
2023-04-30T21:26:32.189Z,3.40
2023-04-30T21:28:58.769Z,3.30
2023-04-30T21:31:25.373Z,3.45
2023-04-30T21:33:51.799Z,3.15
2023-04-30T21:36:18.308Z,3.00
2023-04-30T21:38:45.148Z,3.45
2023-04-30T21:41:18.313Z,3.25
2023-04-30T21:43:44.670Z,3.00
2023-04-30T21:46:13.698Z,3.42
2023-04-30T21:48:40.436Z,2.92
2023-04-30T21:51:15.344Z,3.42
2023-04-30T21:53:42.330Z,3.45
2023-04-30T21:56:10.141Z,3.75
2023-04-30T21:58:37.706Z,3.17
2023-04-30T22:01:05.066Z,3.22
2023-04-30T22:03:32.185Z,3.65
2023-04-30T22:05:59.645Z,3.20
2023-04-30T22:08:28.027Z,3.00
2023-04-30T22:10:59.235Z,3.33
2023-04-30T22:13:29.063Z,3.35
2023-04-30T22:15:55.821Z,3.60
2023-04-30T22:18:23.557Z,3.15
2023-04-30T22:20:51.468Z,3.00
2023-04-30T22:23:20.419Z,3.20
2023-04-30T22:25:47.061Z,3.40
2023-04-30T22:28:15.288Z,3.30
2023-04-30T22:30:41.911Z,2.90
2023-04-30T22:33:08.739Z,3.15
2023-04-30T22:35:37.972Z,3.60
2023-04-30T22:38:05.042Z,3.45
2023-04-30T22:40:33.976Z,3.17
2023-04-30T22:43:01.114Z,3.20
2023-04-30T22:45:29.873Z,3.28
2023-04-30T22:48:00.101Z,2.92
2023-04-30T22:50:27.810Z,3.88
2023-04-30T22:52:56.524Z,3.17
2023-04-30T22:55:23.089Z,3.63
2023-04-30T22:57:49.433Z,3.38
2023-04-30T23:00:17.251Z,3.10
2023-04-30T23:02:43.709Z,3.17
2023-04-30T23:05:12.031Z,3.80
2023-04-30T23:07:39.251Z,3.63
2023-04-30T23:10:06.178Z,3.60
2023-04-30T23:12:32.948Z,3.67
2023-04-30T23:14:59.280Z,3.42
2023-04-30T23:17:26.794Z,3.17
2023-04-30T23:19:53.977Z,3.88
2023-04-30T23:22:21.003Z,3.50
2023-04-30T23:24:47.400Z,3.33
2023-04-30T23:27:13.854Z,3.78
2023-04-30T23:29:40.588Z,3.60
2023-04-30T23:32:06.976Z,3.35
2023-04-30T23:34:33.368Z,4.00
2023-04-30T23:37:00.166Z,3.60
2023-04-30T23:39:27.011Z,3.72
2023-04-30T23:41:53.363Z,3.97
2023-04-30T23:44:20.743Z,3.28
2023-04-30T23:46:47.871Z,3.38
2023-04-30T23:49:16.407Z,3.90
2023-04-30T23:51:43.285Z,3.28
2023-04-30T23:54:09.607Z,3.88
2023-04-30T23:56:37.492Z,3.88
2023-04-30T23:59:03.890Z,3.70
